createdAt,value
2022-09-23T00:01:35.007Z,2.60
2022-09-23T00:04:01.327Z,2.78
2022-09-23T00:06:30.276Z,3.00
2022-09-23T00:08:56.471Z,2.72
2022-09-23T00:11:26.794Z,2.80
2022-09-23T00:13:55.020Z,2.72
2022-09-23T00:16:32.460Z,3.80
2022-09-23T00:18:58.837Z,2.92
2022-09-23T00:21:25.238Z,2.47
2022-09-23T00:23:51.612Z,3.33
2022-09-23T00:26:18.804Z,3.20
2022-09-23T00:28:45.787Z,3.78
2022-09-23T00:31:14.354Z,4.88
2022-09-23T00:33:40.745Z,4.80
2022-09-23T00:36:08.253Z,4.30
2022-09-23T00:38:34.505Z,3.65
2022-09-23T00:41:02.111Z,4.35
2022-09-23T00:43:37.728Z,5.13
2022-09-23T00:46:04.156Z,4.20
2022-09-23T00:48:30.852Z,4.88
2022-09-23T00:50:57.044Z,5.07
2022-09-23T00:53:26.576Z,5.35
2022-09-23T00:55:56.229Z,4.60
2022-09-23T00:58:25.180Z,6.30
2022-09-23T01:00:51.536Z,5.05
2022-09-23T01:03:19.711Z,6.72
2022-09-23T01:05:46.845Z,6.50
2022-09-23T01:08:13.954Z,7.00
2022-09-23T01:10:42.906Z,7.38
2022-09-23T01:13:11.936Z,6.85
2022-09-23T01:16:04.274Z,6.85
2022-09-23T01:18:48.919Z,7.53
2022-09-23T01:21:27.788Z,7.53
2022-09-23T01:24:09.713Z,6.75
2022-09-23T01:26:56.682Z,7.32
2022-09-23T01:29:30.888Z,7.20
2022-09-23T01:31:57.071Z,7.05
2022-09-23T01:34:35.880Z,8.00
2022-09-23T01:37:08.884Z,7.53
2022-09-23T01:39:37.488Z,7.65
2022-09-23T01:42:19.830Z,7.63
2022-09-23T01:44:48.496Z,8.15
2022-09-23T01:47:17.397Z,8.48
2022-09-23T01:50:01.411Z,7.30
2022-09-23T01:52:31.178Z,7.20
2022-09-23T01:55:01.654Z,7.53
2022-09-23T01:57:31.742Z,7.60
2022-09-23T02:00:05.308Z,7.20
2022-09-23T02:02:51.913Z,7.40
2022-09-23T02:05:21.903Z,8.77
2022-09-23T02:08:03.093Z,8.60
2022-09-23T02:10:32.909Z,8.07
2022-09-23T02:13:04.083Z,9.02
2022-09-23T02:15:33.544Z,10.27
2022-09-23T02:18:08.679Z,9.02
2022-09-23T02:20:37.402Z,8.18
2022-09-23T02:23:09.741Z,8.20
2022-09-23T02:25:57.188Z,8.02
2022-09-23T02:28:30.774Z,7.85
2022-09-23T02:31:19.705Z,7.47
2022-09-23T02:34:09.224Z,8.13
2022-09-23T02:36:41.525Z,7.13
2022-09-23T02:39:11.315Z,7.85
2022-09-23T02:41:46.149Z,7.93
2022-09-23T02:44:14.462Z,8.82
2022-09-23T02:46:43.437Z,8.63
2022-09-23T02:49:26.559Z,9.38
2022-09-23T02:51:54.388Z,9.00
2022-09-23T02:54:22.711Z,10.00
2022-09-23T02:56:49.460Z,10.48
2022-09-23T02:59:19.293Z,10.65
2022-09-23T03:01:54.125Z,10.25
2022-09-23T03:04:34.946Z,10.38
2022-09-23T03:07:01.275Z,10.27
2022-09-23T03:09:33.610Z,9.90
2022-09-23T03:12:15.609Z,10.52
2022-09-23T03:14:42.981Z,12.02
2022-09-23T03:17:12.953Z,11.75
2022-09-23T03:19:43.452Z,10.82
2022-09-23T03:22:31.067Z,11.10
2022-09-23T03:25:01.458Z,11.40
2022-09-23T03:27:28.973Z,9.57
2022-09-23T03:29:56.238Z,9.95
2022-09-23T03:32:24.553Z,10.02
2022-09-23T03:34:52.069Z,9.38
2022-09-23T03:37:21.487Z,11.07
2022-09-23T03:40:03.926Z,11.02
2022-09-23T03:42:31.388Z,10.15
2022-09-23T03:44:57.690Z,9.95
2022-09-23T03:47:26.024Z,10.77
2022-09-23T03:49:52.782Z,11.32
2022-09-23T03:52:20.693Z,10.45
2022-09-23T03:54:46.900Z,11.10
2022-09-23T03:57:13.190Z,10.45
2022-09-23T03:59:39.733Z,10.85
2022-09-23T04:02:07.724Z,11.48
2022-09-23T04:04:36.321Z,10.82
2022-09-23T04:07:02.531Z,11.48
2022-09-23T04:09:28.772Z,11.52
2022-09-23T04:11:55.267Z,10.98
2022-09-23T04:14:21.957Z,9.88
2022-09-23T04:16:49.087Z,10.48
2022-09-23T04:19:15.631Z,10.20
2022-09-23T04:21:42.439Z,10.30
2022-09-23T04:24:09.237Z,10.32
2022-09-23T04:26:35.717Z,11.50
2022-09-23T04:29:02.280Z,11.25
2022-09-23T04:31:28.751Z,12.13
2022-09-23T04:33:55.383Z,10.70
2022-09-23T04:36:21.876Z,10.40
2022-09-23T04:38:49.092Z,10.95
2022-09-23T04:41:15.888Z,10.45
2022-09-23T04:43:42.837Z,11.05
2022-09-23T04:46:10.913Z,11.02
2022-09-23T04:48:37.661Z,11.48
2022-09-23T04:51:04.847Z,11.25
2022-09-23T04:53:31.632Z,11.10
2022-09-23T04:56:01.724Z,11.70
2022-09-23T04:58:28.972Z,11.05
2022-09-23T05:00:55.199Z,11.57
2022-09-23T05:03:21.440Z,11.10
2022-09-23T05:05:47.622Z,11.43
2022-09-23T05:08:13.878Z,11.55
2022-09-23T05:10:40.061Z,10.43
2022-09-23T05:13:06.351Z,9.88
2022-09-23T05:15:32.579Z,9.15
2022-09-23T05:17:59.123Z,10.88
2022-09-23T05:20:25.503Z,9.90
2022-09-23T05:22:55.425Z,10.35
2022-09-23T05:25:23.610Z,9.88
2022-09-23T05:27:49.836Z,9.98
2022-09-23T05:30:16.085Z,9.63
2022-09-23T05:32:42.257Z,9.07
2022-09-23T05:35:08.547Z,8.82
2022-09-23T05:37:34.903Z,8.90
2022-09-23T05:40:01.188Z,8.90
2022-09-23T05:42:28.439Z,8.63
2022-09-23T05:44:56.077Z,8.30
2022-09-23T05:47:22.580Z,7.90
2022-09-23T05:49:59.742Z,6.97
2022-09-23T05:52:26.699Z,7.55
2022-09-23T05:54:53.643Z,7.80
2022-09-23T05:57:20.928Z,7.95
2022-09-23T05:59:47.648Z,7.43
2022-09-23T06:02:14.706Z,7.20
2022-09-23T06:04:41.001Z,6.50
2022-09-23T06:07:07.264Z,7.65
2022-09-23T06:09:36.491Z,7.65
2022-09-23T06:12:03.154Z,7.25
2022-09-23T06:14:29.329Z,7.22
2022-09-23T06:16:55.596Z,7.32
2022-09-23T06:19:21.834Z,7.25
2022-09-23T06:21:48.430Z,7.55
2022-09-23T06:24:18.543Z,7.20
2022-09-23T06:26:47.498Z,7.60
2022-09-23T06:29:14.314Z,7.75
2022-09-23T06:31:41.783Z,7.22
2022-09-23T06:34:13.455Z,7.00
2022-09-23T06:36:44.319Z,7.00
2022-09-23T06:39:11.005Z,6.75
2022-09-23T06:41:37.761Z,6.68
2022-09-23T06:44:04.083Z,7.28
2022-09-23T06:46:31.911Z,6.70
2022-09-23T06:48:58.260Z,6.20
2022-09-23T06:51:24.439Z,7.15
2022-09-23T06:53:50.724Z,7.15
2022-09-23T06:56:17.711Z,7.30
2022-09-23T06:58:43.892Z,6.50
2022-09-23T07:01:11.774Z,6.47
2022-09-23T07:03:38.589Z,6.97
2022-09-23T07:06:05.520Z,6.43
2022-09-23T07:08:33.616Z,6.45
2022-09-23T07:11:01.186Z,6.40
2022-09-23T07:13:27.731Z,6.15
2022-09-23T07:15:55.666Z,4.93
2022-09-23T07:18:25.371Z,5.50
2022-09-23T07:20:51.905Z,5.53
2022-09-23T07:23:18.199Z,5.55
2022-09-23T07:25:46.460Z,5.15
2022-09-23T07:28:13.191Z,4.88
2022-09-23T07:30:48.071Z,5.70
2022-09-23T07:33:31.058Z,5.78
2022-09-23T07:35:58.644Z,5.65
2022-09-23T07:38:30.007Z,5.30
2022-09-23T07:41:23.704Z,5.10
2022-09-23T07:43:50.436Z,5.40
2022-09-23T07:46:17.704Z,4.95
2022-09-23T07:48:45.602Z,5.28
2022-09-23T07:51:26.157Z,5.20
2022-09-23T07:53:53.416Z,5.68
2022-09-23T07:56:20.324Z,5.55
2022-09-23T07:58:46.881Z,4.93
2022-09-23T08:01:13.619Z,4.25
2022-09-23T08:03:39.966Z,4.93
2022-09-23T08:06:09.607Z,5.15
2022-09-23T08:08:39.248Z,4.25
2022-09-23T08:11:06.028Z,5.28
2022-09-23T08:13:32.524Z,5.10
2022-09-23T08:15:58.875Z,4.47
2022-09-23T08:18:25.241Z,4.68
2022-09-23T08:20:51.693Z,5.53
2022-09-23T08:23:18.306Z,4.90
2022-09-23T08:25:47.493Z,4.70
2022-09-23T08:28:16.265Z,4.72
2022-09-23T08:30:43.593Z,4.18
2022-09-23T08:33:10.996Z,4.65
2022-09-23T08:35:37.601Z,4.40
2022-09-23T08:38:03.847Z,4.00
2022-09-23T08:40:30.323Z,4.60
2022-09-23T08:42:56.746Z,4.30
2022-09-23T08:45:27.085Z,4.60
2022-09-23T08:48:09.530Z,4.53
2022-09-23T08:50:43.639Z,4.68
2022-09-23T08:53:16.330Z,4.30
2022-09-23T08:55:46.158Z,5.00
2022-09-23T08:58:24.943Z,5.22
2022-09-23T09:01:07.505Z,4.13
2022-09-23T09:03:54.023Z,4.18
2022-09-23T09:06:27.765Z,4.57
2022-09-23T09:08:56.856Z,4.50
2022-09-23T09:11:27.400Z,4.93
2022-09-23T09:13:58.480Z,4.55
2022-09-23T09:16:58.486Z,4.47
2022-09-23T09:19:28.251Z,4.50
2022-09-23T09:21:55.427Z,4.03
2022-09-23T09:24:26.378Z,4.90
2022-09-23T09:26:52.737Z,4.50
2022-09-23T09:29:35.530Z,4.03
2022-09-23T09:32:11.823Z,3.95
2022-09-23T09:34:47.203Z,4.53
2022-09-23T09:37:33.637Z,4.30
2022-09-23T09:40:00.155Z,4.05
2022-09-23T09:42:27.434Z,4.05
2022-09-23T09:44:59.647Z,3.97
2022-09-23T09:47:31.996Z,4.72
2022-09-23T09:50:06.834Z,4.07
2022-09-23T09:55:17.103Z,4.78
2022-09-23T09:57:49.695Z,5.20
2022-09-23T10:00:21.901Z,3.75
2022-09-23T10:02:55.447Z,4.45
2022-09-23T10:05:25.672Z,4.00
2022-09-23T10:07:51.944Z,4.65
2022-09-23T10:10:32.428Z,4.35
2022-09-23T10:13:13.307Z,4.47
2022-09-23T10:15:44.881Z,4.32
2022-09-23T10:18:19.511Z,3.92
2022-09-23T10:20:46.073Z,3.70
2022-09-23T10:23:16.175Z,4.05
2022-09-23T10:25:42.584Z,3.88
2022-09-23T10:28:29.193Z,3.97
2022-09-23T10:31:03.581Z,4.10
2022-09-23T10:33:31.111Z,3.30
2022-09-23T10:35:57.462Z,3.42
2022-09-23T10:38:23.689Z,3.60
2022-09-23T10:44:06.801Z,3.22
2022-09-23T10:46:39.661Z,3.58
2022-09-23T10:49:18.012Z,3.03
2022-09-23T10:52:02.737Z,3.55
2022-09-23T10:54:56.275Z,3.85
2022-09-23T10:57:37.914Z,3.45
2022-09-23T11:00:10.341Z,3.97
2022-09-23T11:02:36.569Z,3.33
2022-09-23T11:05:18.038Z,3.58
2022-09-23T11:08:02.835Z,3.55
2022-09-23T11:10:49.707Z,3.70
2022-09-23T11:13:31.305Z,3.15
2022-09-23T11:16:12.614Z,3.15
2022-09-23T11:18:50.882Z,3.25
2022-09-23T11:21:20.117Z,3.50
2022-09-23T11:23:58.295Z,3.35
2022-09-23T11:26:50.201Z,3.30
2022-09-23T11:29:25.159Z,3.28
2022-09-23T11:32:10.184Z,3.05
2022-09-23T11:34:42.331Z,3.25
2022-09-23T11:37:14.000Z,3.95
2022-09-23T11:39:43.966Z,3.22
2022-09-23T11:42:14.432Z,3.63
2022-09-23T11:44:44.366Z,3.40
2022-09-23T11:47:29.132Z,3.40
2022-09-23T11:50:07.392Z,3.33
2022-09-23T11:56:34.223Z,2.97
2022-09-23T11:59:21.615Z,2.90
2022-09-23T12:02:20.107Z,3.35
2022-09-23T12:04:57.902Z,2.80
2022-09-23T12:07:28.357Z,2.95
2022-09-23T12:09:58.938Z,3.33
2022-09-23T12:12:37.353Z,3.20
2022-09-23T12:15:22.314Z,2.42
2022-09-23T12:17:59.294Z,3.45
2022-09-23T12:20:45.883Z,3.00
2022-09-23T12:23:13.132Z,3.28
2022-09-23T12:25:51.679Z,3.10
2022-09-23T12:28:20.719Z,2.78
2022-09-23T12:30:48.029Z,2.63
2022-09-23T12:33:21.851Z,2.72
2022-09-23T12:35:48.260Z,3.10
2022-09-23T12:38:20.693Z,2.75
2022-09-23T12:40:47.703Z,2.63
2022-09-23T12:43:30.671Z,2.30
2022-09-23T12:46:16.477Z,2.38
2022-09-23T12:48:44.024Z,2.50
2022-09-23T12:51:16.200Z,2.72
2022-09-23T12:53:52.236Z,3.13
2022-09-23T12:56:18.458Z,2.10
2022-09-23T12:58:44.678Z,2.20
2022-09-23T13:01:14.138Z,2.10
2022-09-23T13:04:17.078Z,2.20
2022-09-23T13:06:55.450Z,2.60
2022-09-23T13:09:32.630Z,2.95
2022-09-23T13:12:00.839Z,2.33
2022-09-23T13:14:28.453Z,1.92
2022-09-23T13:16:55.996Z,2.13
2022-09-23T13:19:28.166Z,2.38
2022-09-23T13:21:54.427Z,2.03
2022-09-23T13:24:24.823Z,2.22
2022-09-23T13:26:53.680Z,2.55
2022-09-23T13:29:27.877Z,2.03
2022-09-23T13:31:57.769Z,1.88
2022-09-23T13:34:26.024Z,1.60
2022-09-23T13:36:53.499Z,1.80
2022-09-23T13:39:24.423Z,2.05
2022-09-23T13:41:52.670Z,1.60
2022-09-23T13:44:19.987Z,1.80
2022-09-23T13:46:51.313Z,1.67
2022-09-23T13:49:25.588Z,1.67
2022-09-23T13:51:55.327Z,1.55
2022-09-23T13:54:40.124Z,1.60
2022-09-23T13:57:06.430Z,1.65
2022-09-23T13:59:41.484Z,1.48
2022-09-23T14:02:11.936Z,1.48
2022-09-23T14:04:38.267Z,1.65
2022-09-23T14:07:06.677Z,1.42
2022-09-23T14:09:33.960Z,1.80
2022-09-23T14:12:00.689Z,1.55
2022-09-23T14:14:27.726Z,1.58
2022-09-23T14:16:54.483Z,1.80
2022-09-23T14:19:21.946Z,1.40
2022-09-23T14:21:49.352Z,1.77
2022-09-23T14:24:15.554Z,1.70
2022-09-23T14:26:43.160Z,1.70
2022-09-23T14:29:13.934Z,1.80
2022-09-23T14:31:40.370Z,1.63
2022-09-23T14:34:26.592Z,1.98
2022-09-23T14:37:11.301Z,1.77
2022-09-23T14:39:37.498Z,2.03
2022-09-23T14:42:06.965Z,1.60
2022-09-23T14:44:35.451Z,1.90
2022-09-23T14:47:01.679Z,2.08
2022-09-23T14:49:27.960Z,1.50
2022-09-23T14:51:55.331Z,1.67
2022-09-23T14:54:39.587Z,1.42
2022-09-23T14:57:25.297Z,1.67
2022-09-23T14:59:53.470Z,1.58
2022-09-23T15:02:33.276Z,1.42
2022-09-23T15:05:08.599Z,1.52
2022-09-23T15:07:36.603Z,1.50
2022-09-23T15:10:04.535Z,1.63
2022-09-23T15:12:30.709Z,1.83
2022-09-23T15:14:58.362Z,1.52
2022-09-23T15:17:24.689Z,2.17
2022-09-23T15:19:54.119Z,1.70
2022-09-23T15:22:20.621Z,1.67
2022-09-23T15:24:46.917Z,1.50
2022-09-23T15:27:32.699Z,1.30
2022-09-23T15:30:12.526Z,1.63
2022-09-23T15:32:42.168Z,1.88
2022-09-23T15:35:11.413Z,1.70
2022-09-23T15:37:37.730Z,1.70
2022-09-23T15:40:04.215Z,1.70
2022-09-23T15:42:30.844Z,1.85
2022-09-23T15:44:58.294Z,2.10
2022-09-23T15:47:24.483Z,1.73
2022-09-23T15:49:51.484Z,1.77
2022-09-23T15:52:18.558Z,1.67
2022-09-23T15:54:45.872Z,1.92
2022-09-23T15:57:12.509Z,1.70
2022-09-23T15:59:38.756Z,1.65
2022-09-23T16:02:07.715Z,1.65
2022-09-23T16:04:34.070Z,2.70
2022-09-23T16:07:01.515Z,2.10
2022-09-23T16:09:31.435Z,2.13
2022-09-23T16:11:57.664Z,2.15
2022-09-23T16:14:24.211Z,1.88
2022-09-23T16:16:50.477Z,1.98
2022-09-23T16:19:17.559Z,1.70
2022-09-23T16:21:44.562Z,2.10
2022-09-23T16:24:13.945Z,1.80
2022-09-23T16:26:40.559Z,1.60
2022-09-23T16:29:06.875Z,2.00
2022-09-23T16:31:33.258Z,1.88
2022-09-23T16:34:02.457Z,1.90
2022-09-23T16:36:32.869Z,1.70
2022-09-23T16:38:59.853Z,2.40
2022-09-23T16:41:29.073Z,2.35
2022-09-23T16:43:56.124Z,2.40
2022-09-23T16:46:23.748Z,2.30
2022-09-23T16:48:52.920Z,2.33
2022-09-23T16:51:21.001Z,2.20
2022-09-23T16:53:49.037Z,2.30
2022-09-23T16:56:16.809Z,2.40
2022-09-23T16:58:47.961Z,2.55
2022-09-23T17:01:34.589Z,2.80
2022-09-23T17:04:00.885Z,3.30
2022-09-23T17:06:27.811Z,3.38
2022-09-23T17:08:54.069Z,2.70
2022-09-23T17:11:20.760Z,2.47
2022-09-23T17:13:47.498Z,2.80
2022-09-23T17:16:29.582Z,3.05
2022-09-23T17:18:56.259Z,3.10
2022-09-23T17:21:26.748Z,2.75
2022-09-23T17:23:53.523Z,3.00
2022-09-23T17:26:23.220Z,3.88
2022-09-23T17:28:54.226Z,4.10
2022-09-23T17:31:24.016Z,9.50
2022-09-23T17:33:51.380Z,3.83
2022-09-23T17:36:18.193Z,4.68
2022-09-23T17:38:45.090Z,4.72
2022-09-23T17:41:12.355Z,5.43
2022-09-23T17:43:38.995Z,4.90
2022-09-23T17:46:06.786Z,3.70
2022-09-23T17:48:34.301Z,4.25
2022-09-23T17:51:01.999Z,3.03
2022-09-23T17:53:32.186Z,4.00
2022-09-23T17:56:04.108Z,5.95
2022-09-23T17:58:31.660Z,3.97
2022-09-23T18:00:58.254Z,3.33
2022-09-23T18:03:25.636Z,3.10
2022-09-23T18:05:52.206Z,2.80
2022-09-23T18:08:18.550Z,2.72
2022-09-23T18:10:44.769Z,3.88
2022-09-23T18:13:11.030Z,3.42
2022-09-23T18:15:37.802Z,3.38
2022-09-23T18:18:04.514Z,3.17
2022-09-23T18:20:30.949Z,3.00
2022-09-23T18:22:57.269Z,3.00
2022-09-23T18:25:38.792Z,3.03
2022-09-23T18:28:06.076Z,3.78
2022-09-23T18:30:33.526Z,5.18
2022-09-23T18:32:59.932Z,5.32
2022-09-23T18:35:26.405Z,5.55
2022-09-23T18:37:52.615Z,4.00
2022-09-23T18:40:19.009Z,4.03
2022-09-23T18:42:45.220Z,3.67
2022-09-23T18:45:11.770Z,3.38
2022-09-23T18:47:56.940Z,3.35
2022-09-23T18:50:42.998Z,3.25
2022-09-23T18:53:09.898Z,2.88
2022-09-23T18:55:36.439Z,3.47
2022-09-23T18:58:02.908Z,3.78
2022-09-23T19:00:29.837Z,3.53
2022-09-23T19:02:56.076Z,2.60
2022-09-23T19:05:22.266Z,2.30
2022-09-23T19:07:48.438Z,2.67
2022-09-23T19:10:14.677Z,3.00
2022-09-23T19:12:40.896Z,2.60
2022-09-23T19:15:08.038Z,2.53
2022-09-23T19:17:34.377Z,3.00
2022-09-23T19:20:00.670Z,2.13
2022-09-23T19:22:26.994Z,2.90
2022-09-23T19:24:53.193Z,2.60
2022-09-23T19:27:19.398Z,3.13
2022-09-23T19:29:47.272Z,3.22
2022-09-23T19:32:15.820Z,3.20
2022-09-23T19:34:42.039Z,3.17
2022-09-23T19:37:08.275Z,3.40
2022-09-23T19:39:35.038Z,3.30
2022-09-23T19:42:01.630Z,2.90
2022-09-23T19:44:27.903Z,3.00
2022-09-23T19:46:56.950Z,3.10
2022-09-23T19:49:24.347Z,3.67
2022-09-23T19:51:50.606Z,3.28
2022-09-23T19:54:20.663Z,3.10
2022-09-23T19:56:48.441Z,3.35
2022-09-23T19:59:18.478Z,3.22
2022-09-23T20:01:45.640Z,3.17
2022-09-23T20:04:11.955Z,3.20
2022-09-23T20:06:38.725Z,3.28
2022-09-23T20:09:05.475Z,3.35
2022-09-23T20:11:32.351Z,3.40
2022-09-23T20:14:02.087Z,2.63
2022-09-23T20:16:31.609Z,2.55
2022-09-23T20:18:59.575Z,3.00
2022-09-23T20:21:26.115Z,2.85
2022-09-23T20:23:52.626Z,3.58
2022-09-23T20:26:37.428Z,3.30
2022-09-23T20:29:03.998Z,3.17
2022-09-23T20:31:30.296Z,4.00
2022-09-23T20:33:58.104Z,4.70
2022-09-23T20:36:25.692Z,4.45
2022-09-23T20:38:54.964Z,4.53
2022-09-23T20:41:21.389Z,4.50
2022-09-23T20:43:48.181Z,4.25
2022-09-23T20:46:17.464Z,4.28
2022-09-23T20:48:46.276Z,3.75
2022-09-23T20:51:12.510Z,3.97
2022-09-23T20:53:38.771Z,4.38
2022-09-23T20:56:05.835Z,3.90
2022-09-23T20:58:36.515Z,3.40
2022-09-23T21:01:04.391Z,4.13
2022-09-23T21:03:31.672Z,3.70
2022-09-23T21:06:01.540Z,3.67
2022-09-23T21:08:27.885Z,3.72
2022-09-23T21:10:57.892Z,3.80
2022-09-23T21:13:24.135Z,4.00
2022-09-23T21:15:50.689Z,3.88
2022-09-23T21:18:21.707Z,3.95
2022-09-23T21:20:55.775Z,3.50
2022-09-23T21:23:29.145Z,4.00
2022-09-23T21:26:01.563Z,4.05
2022-09-23T21:28:31.913Z,4.00
2022-09-23T21:30:59.329Z,3.10
2022-09-23T21:33:25.554Z,3.55
2022-09-23T21:35:58.842Z,3.20
2022-09-23T21:38:25.056Z,3.78
2022-09-23T21:40:58.416Z,3.92
2022-09-23T21:43:25.688Z,3.03
2022-09-23T21:45:58.777Z,4.15
2022-09-23T21:48:32.434Z,3.92
2022-09-23T21:51:02.810Z,3.80
2022-09-23T21:53:29.813Z,4.32
2022-09-23T21:56:05.086Z,3.15
2022-09-23T21:58:31.826Z,3.40
2022-09-23T22:00:58.551Z,4.18
2022-09-23T22:03:25.151Z,3.90
2022-09-23T22:06:21.358Z,3.45
2022-09-23T22:08:49.094Z,3.92
2022-09-23T22:11:35.077Z,3.67
2022-09-23T22:14:02.101Z,3.83
2022-09-23T22:16:32.121Z,4.07
2022-09-23T22:19:01.013Z,3.80
2022-09-23T22:21:28.781Z,3.72
2022-09-23T22:23:56.918Z,4.15
2022-09-23T22:26:23.550Z,4.30
2022-09-23T22:29:08.558Z,4.05
2022-09-23T22:31:53.239Z,4.20
2022-09-23T22:34:47.501Z,4.07
2022-09-23T22:37:06.473Z,4.00
2022-09-23T22:39:32.761Z,3.85
2022-09-23T22:41:59.366Z,3.28
2022-09-23T22:44:25.578Z,3.70
2022-09-23T22:46:51.992Z,3.95
2022-09-23T22:49:21.260Z,3.50
2022-09-23T22:51:47.493Z,4.13
2022-09-23T22:54:13.774Z,3.95
2022-09-23T22:56:39.978Z,3.55
2022-09-23T22:59:07.013Z,3.40
2022-09-23T23:01:34.069Z,3.85
2022-09-23T23:04:03.692Z,4.00
2022-09-23T23:06:35.984Z,4.50
2022-09-23T23:09:07.342Z,4.28
2022-09-23T23:11:33.686Z,4.18
2022-09-23T23:14:02.081Z,4.25
2022-09-23T23:16:29.431Z,3.80
2022-09-23T23:18:56.097Z,4.43
2022-09-23T23:21:22.349Z,4.43
2022-09-23T23:23:50.204Z,4.65
2022-09-23T23:26:19.797Z,4.53
2022-09-23T23:28:46.591Z,5.10
2022-09-23T23:31:13.956Z,4.68
2022-09-23T23:33:41.834Z,4.72
2022-09-23T23:36:08.376Z,4.45
2022-09-23T23:38:35.470Z,4.85
2022-09-23T23:41:02.532Z,4.70
2022-09-23T23:43:28.877Z,5.22
2022-09-23T23:45:56.161Z,5.15
2022-09-23T23:48:22.475Z,5.30
2022-09-23T23:50:58.095Z,5.53
2022-09-23T23:53:44.572Z,6.40
2022-09-23T23:56:12.377Z,5.68
2022-09-23T23:58:39.280Z,5.07
